createdAt,value
2018-03-04T00:00:23.413Z,0.00
2018-03-04T00:01:23.420Z,0.00
2018-03-04T00:02:23.335Z,0.00
2018-03-04T00:03:23.286Z,0.00
2018-03-04T00:04:23.240Z,0.00
2018-03-04T00:05:23.213Z,0.00
2018-03-04T00:06:23.163Z,0.00
2018-03-04T00:07:23.129Z,0.00
2018-03-04T00:08:23.095Z,0.00
2018-03-04T00:09:23.035Z,0.00
2018-03-04T00:10:22.991Z,0.00
2018-03-04T00:11:22.952Z,0.00
2018-03-04T00:12:22.913Z,0.00
2018-03-04T00:13:22.870Z,0.00
2018-03-04T00:14:22.866Z,0.00
2018-03-04T00:15:22.785Z,0.00
2018-03-04T00:16:22.766Z,0.00
2018-03-04T00:17:22.702Z,0.00
2018-03-04T00:18:22.672Z,0.00
2018-03-04T00:19:22.616Z,0.00
2018-03-04T00:20:22.583Z,0.00
2018-03-04T00:21:22.561Z,0.00
2018-03-04T00:22:22.534Z,0.00
2018-03-04T00:23:22.458Z,0.00
2018-03-04T00:24:22.463Z,0.00
2018-03-04T00:25:22.379Z,0.00
2018-03-04T00:26:22.326Z,0.00
2018-03-04T00:27:22.290Z,0.00
2018-03-04T00:28:22.247Z,0.00
2018-03-04T00:29:22.209Z,0.00
2018-03-04T00:30:22.264Z,0.00
2018-03-04T00:31:22.131Z,0.00
2018-03-04T00:32:22.095Z,0.00
2018-03-04T00:33:22.036Z,0.00
2018-03-04T00:34:22.061Z,0.00
2018-03-04T00:35:22.744Z,0.00
2018-03-04T00:36:23.219Z,0.00
2018-03-04T00:37:23.797Z,0.00
2018-03-04T00:38:21.835Z,0.00
2018-03-04T00:39:21.785Z,0.00
2018-03-04T00:40:21.787Z,0.00
2018-03-04T00:41:21.702Z,0.00
2018-03-04T00:42:21.655Z,0.00
2018-03-04T00:43:22.242Z,0.00
2018-03-04T00:44:21.593Z,0.00
2018-03-04T00:45:21.534Z,0.00
2018-03-04T00:46:21.496Z,0.00
2018-03-04T00:47:21.487Z,0.00
2018-03-04T00:48:21.414Z,0.00
2018-03-04T00:49:21.366Z,0.00
2018-03-04T00:50:21.326Z,0.00
2018-03-04T00:51:21.314Z,0.00
2018-03-04T00:52:21.242Z,0.00
2018-03-04T00:53:21.280Z,0.00
2018-03-04T00:54:21.171Z,0.00
2018-03-04T00:55:21.163Z,0.00
2018-03-04T00:56:21.109Z,0.00
2018-03-04T00:57:21.033Z,0.00
2018-03-04T00:58:21.014Z,0.00
2018-03-04T00:59:20.947Z,0.00
2018-03-04T01:00:20.910Z,0.00
2018-03-04T01:01:20.876Z,0.00
2018-03-04T01:02:20.824Z,0.00
2018-03-04T01:03:20.794Z,0.00
2018-03-04T01:04:20.743Z,0.00
2018-03-04T01:05:20.697Z,0.00
2018-03-04T01:06:20.657Z,0.00
2018-03-04T01:07:20.615Z,0.00
2018-03-04T01:08:20.569Z,0.00
2018-03-04T01:09:20.561Z,0.00
2018-03-04T01:10:20.492Z,0.00
2018-03-04T01:11:20.454Z,0.00
2018-03-04T01:12:20.404Z,0.00
2018-03-04T01:13:20.416Z,0.00
2018-03-04T01:14:20.334Z,0.00
2018-03-04T01:15:20.307Z,0.00
2018-03-04T01:16:20.236Z,0.00
2018-03-04T01:17:20.220Z,0.00
2018-03-04T01:18:20.160Z,0.00
2018-03-04T01:19:20.137Z,0.00
2018-03-04T01:20:20.078Z,0.00
2018-03-04T01:21:20.029Z,0.00
2018-03-04T01:22:20.009Z,0.00
2018-03-04T01:23:19.965Z,0.00
2018-03-04T01:24:19.903Z,0.00
2018-03-04T01:25:19.868Z,0.00
2018-03-04T01:26:19.818Z,0.00
2018-03-04T01:27:19.787Z,0.00
2018-03-04T01:28:19.731Z,0.00
2018-03-04T01:29:19.724Z,0.00
2018-03-04T01:30:19.661Z,0.00
2018-03-04T01:31:19.614Z,0.00
2018-03-04T01:32:19.566Z,0.00
2018-03-04T01:33:19.551Z,0.00
2018-03-04T01:34:19.526Z,0.00
2018-03-04T01:35:19.440Z,0.00
2018-03-04T01:36:19.416Z,0.00
2018-03-04T01:37:19.361Z,0.00
2018-03-04T01:38:19.317Z,0.00
2018-03-04T01:39:19.302Z,0.00
2018-03-04T01:40:19.249Z,0.00
2018-03-04T01:41:19.188Z,0.00
2018-03-04T01:42:19.150Z,0.00
2018-03-04T01:43:19.119Z,0.00
2018-03-04T01:44:19.089Z,0.00
2018-03-04T01:45:19.045Z,0.00
2018-03-04T01:46:18.979Z,0.00
2018-03-04T01:47:18.958Z,0.00
2018-03-04T01:48:18.912Z,0.00
2018-03-04T01:49:18.892Z,0.00
2018-03-04T01:50:18.833Z,0.00
2018-03-04T01:51:18.788Z,0.00
2018-03-04T01:52:18.741Z,0.00
2018-03-04T01:53:18.692Z,0.00
2018-03-04T01:54:18.653Z,0.00
2018-03-04T01:55:18.612Z,0.00
2018-03-04T01:56:18.562Z,0.00
2018-03-04T01:57:18.541Z,0.00
2018-03-04T01:58:18.485Z,0.00
2018-03-04T01:59:18.436Z,0.00
2018-03-04T02:00:18.416Z,0.00
2018-03-04T02:01:18.369Z,0.00
2018-03-04T02:02:18.335Z,0.00
2018-03-04T02:03:18.325Z,0.00
2018-03-04T02:04:18.244Z,0.00
2018-03-04T02:05:18.209Z,0.00
2018-03-04T02:06:18.146Z,0.00
2018-03-04T02:07:18.128Z,0.00
2018-03-04T02:08:18.102Z,0.00
2018-03-04T02:09:18.055Z,0.00
2018-03-04T02:10:17.978Z,0.00
2018-03-04T02:11:17.939Z,0.00
2018-03-04T02:12:17.895Z,0.00
2018-03-04T02:13:17.854Z,0.00
2018-03-04T02:14:17.841Z,0.00
2018-03-04T02:15:17.774Z,0.00
2018-03-04T02:16:17.738Z,0.00
2018-03-04T02:17:17.723Z,0.00
2018-03-04T02:18:17.669Z,0.00
2018-03-04T02:19:17.603Z,0.00
2018-03-04T02:20:17.563Z,0.00
2018-03-04T02:21:17.529Z,0.00
2018-03-04T02:22:17.500Z,0.00
2018-03-04T02:23:17.445Z,0.00
2018-03-04T02:24:17.423Z,0.00
2018-03-04T02:25:17.358Z,0.00
2018-03-04T02:26:17.311Z,0.00
2018-03-04T02:27:17.270Z,0.00
2018-03-04T02:28:17.230Z,0.00
2018-03-04T02:29:17.187Z,0.00
2018-03-04T02:30:17.146Z,0.00
2018-03-04T02:31:17.111Z,0.00
2018-03-04T02:32:17.066Z,0.00
2018-03-04T02:33:17.044Z,0.00
2018-03-04T02:34:16.984Z,0.00
2018-03-04T02:35:16.940Z,0.00
2018-03-04T02:36:16.932Z,0.00
2018-03-04T02:37:16.865Z,0.00
2018-03-04T02:38:16.813Z,0.00
2018-03-04T02:39:16.773Z,0.00
2018-03-04T02:40:16.787Z,0.00
2018-03-04T02:41:16.724Z,0.00
2018-03-04T02:42:16.646Z,0.00
2018-03-04T02:43:16.633Z,0.00
2018-03-04T02:44:16.565Z,0.00
2018-03-04T02:45:16.527Z,0.00
2018-03-04T02:46:16.527Z,0.00
2018-03-04T02:47:16.451Z,0.00
2018-03-04T02:48:16.401Z,0.00
2018-03-04T02:49:16.393Z,0.00
2018-03-04T02:50:16.315Z,0.00
2018-03-04T02:51:16.286Z,0.00
2018-03-04T02:52:16.232Z,0.00
2018-03-04T02:53:16.215Z,0.00
2018-03-04T02:54:16.163Z,0.00
2018-03-04T02:55:16.107Z,0.00
2018-03-04T02:56:16.111Z,0.00
2018-03-04T02:57:16.031Z,0.00
2018-03-04T02:58:15.981Z,0.00
2018-03-04T02:59:15.943Z,0.00
2018-03-04T03:00:15.900Z,0.00
2018-03-04T03:01:15.867Z,0.00
2018-03-04T03:02:15.818Z,0.00
2018-03-04T03:03:15.779Z,0.00
2018-03-04T03:04:15.798Z,0.00
2018-03-04T03:05:15.712Z,0.00
2018-03-04T03:06:15.649Z,0.00
2018-03-04T03:07:15.614Z,0.00
2018-03-04T03:08:15.567Z,0.00
2018-03-04T03:09:15.530Z,0.00
2018-03-04T03:10:15.483Z,0.00
2018-03-04T03:11:15.459Z,0.00
2018-03-04T03:12:15.425Z,0.00
2018-03-04T03:13:15.366Z,0.00
2018-03-04T03:14:15.330Z,0.00
2018-03-04T03:15:15.278Z,0.00
2018-03-04T03:16:15.251Z,0.00
2018-03-04T03:17:15.191Z,0.00
2018-03-04T03:18:15.157Z,0.00
2018-03-04T03:19:15.108Z,0.00
2018-03-04T03:20:15.088Z,0.00
2018-03-04T03:21:15.029Z,0.00
2018-03-04T03:22:14.981Z,0.00
2018-03-04T03:23:14.944Z,0.00
2018-03-04T03:24:14.910Z,0.00
2018-03-04T03:25:14.868Z,0.00
2018-03-04T03:26:14.848Z,0.00
2018-03-04T03:27:14.791Z,0.00
2018-03-04T03:28:14.754Z,0.00
2018-03-04T03:29:14.695Z,0.00
2018-03-04T03:30:14.675Z,0.00
2018-03-04T03:31:14.640Z,0.00
2018-03-04T03:32:14.590Z,0.00
2018-03-04T03:33:14.567Z,0.00
2018-03-04T03:34:14.489Z,0.00
2018-03-04T03:35:14.463Z,0.00
2018-03-04T03:36:14.416Z,0.00
2018-03-04T03:37:14.358Z,0.00
2018-03-04T03:38:14.321Z,0.00
2018-03-04T03:39:14.306Z,0.00
2018-03-04T03:40:14.230Z,0.00
2018-03-04T03:41:14.196Z,0.00
2018-03-04T03:42:14.168Z,0.00
2018-03-04T03:43:14.108Z,0.00
2018-03-04T03:44:14.078Z,0.00
2018-03-04T03:45:14.059Z,0.00
2018-03-04T03:46:13.984Z,0.00
2018-03-04T03:47:13.940Z,0.00
2018-03-04T03:48:13.966Z,0.00
2018-03-04T03:49:13.894Z,0.00
2018-03-04T03:50:13.817Z,0.00
2018-03-04T03:51:13.773Z,0.00
2018-03-04T03:52:13.734Z,0.00
2018-03-04T03:53:13.689Z,0.00
2018-03-04T03:54:13.649Z,0.00
2018-03-04T03:55:13.654Z,0.00
2018-03-04T03:56:13.570Z,0.00
2018-03-04T03:57:13.541Z,0.00
2018-03-04T03:58:13.482Z,0.00
2018-03-04T03:59:13.446Z,0.00
2018-03-04T04:00:13.440Z,0.00
2018-03-04T04:01:13.378Z,0.00
2018-03-04T04:02:13.344Z,0.00
2018-03-04T04:03:13.273Z,0.00
2018-03-04T04:04:13.253Z,0.00
2018-03-04T04:05:13.188Z,0.00
2018-03-04T04:06:13.158Z,0.00
2018-03-04T04:07:13.107Z,0.00
2018-03-04T04:08:13.107Z,0.00
2018-03-04T04:09:13.052Z,0.00
2018-03-04T04:10:12.989Z,0.00
2018-03-04T04:11:12.940Z,0.00
2018-03-04T04:12:12.923Z,0.00
2018-03-04T04:13:12.868Z,0.00
2018-03-04T04:14:12.838Z,0.00
2018-03-04T04:15:12.807Z,0.00
2018-03-04T04:16:12.730Z,0.00
2018-03-04T04:17:12.699Z,0.00
2018-03-04T04:18:12.643Z,0.00
2018-03-04T04:19:13.198Z,0.00
2018-03-04T04:20:12.571Z,0.00
2018-03-04T04:21:13.195Z,0.00
2018-03-04T04:22:12.478Z,0.00
2018-03-04T04:23:12.454Z,0.00
2018-03-04T04:24:12.398Z,0.00
2018-03-04T04:25:12.354Z,0.00
2018-03-04T04:26:12.325Z,0.00
2018-03-04T04:27:12.282Z,0.00
2018-03-04T04:28:12.227Z,0.00
2018-03-04T04:29:12.187Z,0.00
2018-03-04T04:30:12.150Z,0.00
2018-03-04T04:31:12.160Z,0.00
2018-03-04T04:32:12.070Z,0.00
2018-03-04T04:33:12.017Z,0.00
2018-03-04T04:34:12.036Z,0.00
2018-03-04T04:35:11.948Z,0.00
2018-03-04T04:36:11.907Z,0.00
2018-03-04T04:37:11.856Z,0.00
2018-03-04T04:38:11.808Z,0.00
2018-03-04T04:39:11.779Z,0.00
2018-03-04T04:40:11.757Z,0.00
2018-03-04T04:41:11.736Z,0.00
2018-03-04T04:42:11.640Z,0.00
2018-03-04T04:43:11.654Z,0.00
2018-03-04T04:44:11.568Z,0.00
2018-03-04T04:45:11.518Z,0.00
2018-03-04T04:46:11.474Z,0.00
2018-03-04T04:47:11.445Z,0.00
2018-03-04T04:48:11.393Z,0.00
2018-03-04T04:49:11.351Z,0.00
2018-03-04T04:50:11.311Z,0.00
2018-03-04T04:51:11.285Z,0.00
2018-03-04T04:52:11.226Z,0.00
2018-03-04T04:53:11.223Z,0.00
2018-03-04T04:54:11.163Z,0.00
2018-03-04T04:55:11.148Z,0.00
2018-03-04T04:56:11.057Z,0.00
2018-03-04T04:57:11.017Z,0.00
2018-03-04T04:58:10.985Z,0.00
2018-03-04T04:59:10.932Z,0.00
2018-03-04T05:00:10.890Z,0.00
2018-03-04T05:01:10.853Z,0.00
2018-03-04T05:02:10.807Z,0.00
2018-03-04T05:03:10.764Z,0.00
2018-03-04T05:04:10.732Z,0.00
2018-03-04T05:05:10.719Z,0.00
2018-03-04T05:06:10.712Z,0.00
2018-03-04T05:07:10.600Z,0.00
2018-03-04T05:08:10.557Z,0.00
2018-03-04T05:09:10.534Z,0.00
2018-03-04T05:10:10.472Z,0.00
2018-03-04T05:11:10.429Z,0.00
2018-03-04T05:12:10.392Z,0.00
2018-03-04T05:13:10.348Z,0.00
2018-03-04T05:14:10.307Z,0.00
2018-03-04T05:15:10.264Z,0.00
2018-03-04T05:16:10.263Z,0.00
2018-03-04T05:17:10.214Z,0.00
2018-03-04T05:18:10.138Z,0.00
2018-03-04T05:19:10.106Z,0.00
2018-03-04T05:20:10.054Z,0.00
2018-03-04T05:21:10.013Z,0.00
2018-03-04T05:22:09.979Z,0.00
2018-03-04T05:23:09.980Z,0.00
2018-03-04T05:24:09.889Z,0.00
2018-03-04T05:25:09.924Z,0.00
2018-03-04T05:26:09.820Z,0.00
2018-03-04T05:27:09.758Z,0.00
2018-03-04T05:28:09.721Z,0.00
2018-03-04T05:29:09.679Z,0.00
2018-03-04T05:30:09.676Z,0.00
2018-03-04T05:31:09.592Z,0.00
2018-03-04T05:32:09.610Z,0.00
2018-03-04T05:33:09.508Z,0.00
2018-03-04T05:34:09.525Z,0.00
2018-03-04T05:35:09.455Z,0.00
2018-03-04T05:36:09.389Z,0.00
2018-03-04T05:37:09.352Z,0.00
2018-03-04T05:38:09.314Z,0.00
2018-03-04T05:39:09.742Z,0.00
2018-03-04T05:40:09.250Z,0.00
2018-03-04T05:41:09.173Z,0.00
2018-03-04T05:42:09.142Z,0.00
2018-03-04T05:43:09.088Z,0.00
2018-03-04T05:44:09.079Z,0.00
2018-03-04T05:45:09.018Z,4.00
2018-03-04T05:46:08.997Z,0.00
2018-03-04T05:47:08.920Z,0.00
2018-03-04T05:48:08.889Z,4.00
2018-03-04T05:49:08.846Z,4.00
2018-03-04T05:50:08.850Z,4.00
2018-03-04T05:51:08.751Z,4.00
2018-03-04T05:52:08.707Z,4.00
2018-03-04T05:53:08.666Z,8.00
2018-03-04T05:54:08.624Z,8.00
2018-03-04T05:55:08.582Z,8.00
2018-03-04T05:56:08.539Z,12.00
2018-03-04T05:57:08.498Z,12.00
2018-03-04T05:58:08.454Z,16.00
2018-03-04T05:59:08.413Z,16.00
2018-03-04T06:00:08.372Z,20.00
2018-03-04T06:01:08.337Z,20.00
2018-03-04T06:02:08.293Z,24.00
2018-03-04T06:03:08.245Z,32.00
2018-03-04T06:04:08.203Z,32.00
2018-03-04T06:05:08.162Z,36.00
2018-03-04T06:06:08.119Z,44.00
2018-03-04T06:07:08.075Z,48.00
2018-03-04T06:08:08.033Z,56.00
2018-03-04T06:09:07.992Z,56.00
2018-03-04T06:10:07.952Z,68.00
2018-03-04T06:11:07.936Z,72.00
2018-03-04T06:12:07.866Z,80.00
2018-03-04T06:13:07.847Z,84.00
2018-03-04T06:14:07.808Z,96.00
2018-03-04T06:15:07.743Z,104.00
2018-03-04T06:16:07.696Z,112.00
2018-03-04T06:17:07.655Z,120.00
2018-03-04T06:18:07.612Z,132.00
2018-03-04T06:19:07.570Z,144.00
2018-03-04T06:20:07.531Z,160.00
2018-03-04T06:21:07.487Z,164.00
2018-03-04T06:22:07.445Z,176.00
2018-03-04T06:23:07.404Z,188.00
2018-03-04T06:24:07.362Z,192.00
2018-03-04T06:25:07.318Z,204.00
2018-03-04T06:26:07.279Z,216.00
2018-03-04T06:27:07.234Z,228.00
2018-03-04T06:28:07.192Z,236.00
2018-03-04T06:29:07.150Z,252.00
2018-03-04T06:30:07.109Z,260.00
2018-03-04T06:31:07.068Z,272.00
2018-03-04T06:32:07.025Z,284.00
2018-03-04T06:33:06.984Z,296.00
2018-03-04T06:34:06.942Z,312.00
2018-03-04T06:35:06.900Z,324.00
2018-03-04T06:36:06.858Z,340.00
2018-03-04T06:37:06.817Z,356.00
2018-03-04T06:38:06.774Z,376.00
2018-03-04T06:39:06.729Z,392.00
2018-03-04T06:40:06.692Z,416.00
2018-03-04T06:41:06.648Z,456.00
2018-03-04T06:42:06.629Z,500.00
2018-03-04T06:43:06.564Z,472.00
2018-03-04T06:44:06.523Z,416.00
2018-03-04T06:45:06.486Z,416.00
2018-03-04T06:46:06.437Z,432.00
2018-03-04T06:47:06.397Z,448.00
2018-03-04T06:48:06.392Z,480.00
2018-03-04T06:49:06.315Z,556.00
2018-03-04T06:50:06.275Z,524.00
2018-03-04T06:51:06.234Z,532.00
2018-03-04T06:52:06.187Z,520.00
2018-03-04T06:53:06.149Z,528.00
2018-03-04T06:54:06.105Z,536.00
2018-03-04T06:55:06.063Z,544.00
2018-03-04T06:56:06.020Z,548.00
2018-03-04T06:57:05.981Z,564.00
2018-03-04T06:58:05.938Z,572.00
2018-03-04T06:59:05.898Z,580.00
2018-03-04T07:00:05.856Z,592.00
2018-03-04T07:01:05.813Z,620.00
2018-03-04T07:02:05.773Z,656.00
2018-03-04T07:03:05.734Z,696.00
2018-03-04T07:04:05.685Z,740.00
2018-03-04T07:05:05.645Z,776.00
2018-03-04T07:06:05.606Z,784.00
2018-03-04T07:07:05.561Z,788.00
2018-03-04T07:08:05.520Z,816.00
2018-03-04T07:09:05.479Z,888.00
2018-03-04T07:10:05.436Z,980.00
2018-03-04T07:11:05.395Z,1064.00
2018-03-04T07:12:05.354Z,1088.00
2018-03-04T07:13:05.315Z,1116.00
2018-03-04T07:14:05.270Z,1180.00
2018-03-04T07:15:05.228Z,1400.00
2018-03-04T07:16:05.190Z,1900.00
2018-03-04T07:17:05.146Z,2620.00
2018-03-04T07:18:05.103Z,1300.00
2018-03-04T07:19:05.065Z,1168.00
2018-03-04T07:20:05.026Z,1156.00
2018-03-04T07:21:04.988Z,1084.00
2018-03-04T07:22:04.941Z,1272.00
2018-03-04T07:23:04.903Z,952.00
2018-03-04T07:24:04.857Z,892.00
2018-03-04T07:25:04.819Z,864.00
2018-03-04T07:26:04.802Z,892.00
2018-03-04T07:27:04.736Z,920.00
2018-03-04T07:28:04.692Z,928.00
2018-03-04T07:29:04.652Z,928.00
2018-03-04T07:30:04.611Z,936.00
2018-03-04T07:31:04.571Z,960.00
2018-03-04T07:32:04.528Z,968.00
2018-03-04T07:33:04.491Z,956.00
2018-03-04T07:34:04.447Z,972.00
2018-03-04T07:35:04.423Z,972.00
2018-03-04T07:36:04.366Z,988.00
2018-03-04T07:37:04.326Z,1028.00
2018-03-04T07:38:04.282Z,1064.00
2018-03-04T07:39:04.243Z,1200.00
2018-03-04T07:40:04.200Z,1396.00
2018-03-04T07:41:04.160Z,1216.00
2018-03-04T07:42:04.119Z,1284.00
2018-03-04T07:43:04.082Z,1252.00
2018-03-04T07:44:04.038Z,1220.00
2018-03-04T07:45:03.997Z,1160.00
2018-03-04T07:46:03.956Z,1104.00
2018-03-04T07:47:03.918Z,1100.00
2018-03-04T07:48:03.879Z,1056.00
2018-03-04T07:49:03.833Z,964.00
2018-03-04T07:50:03.793Z,896.00
2018-03-04T07:51:03.759Z,872.00
2018-03-04T07:52:03.709Z,896.00
2018-03-04T07:53:03.670Z,832.00
2018-03-04T07:54:03.627Z,800.00
2018-03-04T07:55:03.588Z,848.00
2018-03-04T07:56:03.548Z,960.00
2018-03-04T07:57:03.507Z,1036.00
2018-03-04T07:58:03.464Z,1052.00
2018-03-04T07:59:03.425Z,1024.00
2018-03-04T08:00:03.385Z,1060.00
2018-03-04T08:01:03.346Z,1080.00
2018-03-04T08:02:03.299Z,1084.00
2018-03-04T08:03:03.260Z,1080.00
2018-03-04T08:04:03.217Z,1056.00
2018-03-04T08:05:03.178Z,1064.00
2018-03-04T08:06:03.136Z,1100.00
2018-03-04T08:07:03.097Z,1140.00
2018-03-04T08:08:03.054Z,1208.00
2018-03-04T08:09:03.016Z,1292.00
2018-03-04T08:10:02.972Z,1352.00
2018-03-04T08:11:02.934Z,1392.00
2018-03-04T08:12:02.894Z,1432.00
2018-03-04T08:13:02.853Z,1452.00
2018-03-04T08:14:02.813Z,1468.00
2018-03-04T08:15:02.946Z,1476.00
2018-03-04T08:16:02.732Z,1532.00
2018-03-04T08:17:02.691Z,1600.00
2018-03-04T08:18:02.651Z,1740.00
2018-03-04T08:19:02.608Z,1896.00
2018-03-04T08:20:02.593Z,2060.00
2018-03-04T08:21:02.530Z,2208.00
2018-03-04T08:22:02.489Z,2556.00
2018-03-04T08:23:02.452Z,2552.00
2018-03-04T08:24:02.411Z,2704.00
2018-03-04T08:25:02.370Z,2536.00
2018-03-04T08:26:02.332Z,2596.00
2018-03-04T08:27:02.286Z,2916.00
2018-03-04T08:28:02.259Z,3356.00
2018-03-04T08:29:02.215Z,3116.00
2018-03-04T08:30:02.168Z,3172.00
2018-03-04T08:31:02.129Z,3168.00
2018-03-04T08:32:02.094Z,3476.00
2018-03-04T08:33:02.051Z,3180.00
2018-03-04T08:34:02.030Z,3256.00
2018-03-04T08:35:01.974Z,3468.00
2018-03-04T08:36:01.933Z,3628.00
2018-03-04T08:37:01.893Z,3516.00
2018-03-04T08:38:01.909Z,3220.00
2018-03-04T08:39:01.816Z,3104.00
2018-03-04T08:40:01.779Z,3044.00
2018-03-04T08:41:01.736Z,3312.00
2018-03-04T08:42:01.696Z,3280.00
2018-03-04T08:43:01.659Z,3144.00
2018-03-04T08:44:01.623Z,4232.00
2018-03-04T08:45:01.588Z,3444.00
2018-03-04T08:46:01.543Z,3084.00
2018-03-04T08:47:01.504Z,3188.00
2018-03-04T08:48:01.464Z,3796.00
2018-03-04T08:49:01.433Z,3144.00
2018-03-04T08:50:01.389Z,3448.00
2018-03-04T08:51:01.353Z,3912.00
2018-03-04T08:52:01.312Z,3264.00
2018-03-04T08:53:01.279Z,3288.00
2018-03-04T08:54:01.235Z,3452.00
2018-03-04T08:55:01.197Z,3672.00
2018-03-04T08:56:01.159Z,4272.00
2018-03-04T08:57:01.123Z,4396.00
2018-03-04T08:58:01.083Z,6492.00
2018-03-04T08:59:01.045Z,5048.00
2018-03-04T09:00:01.009Z,4372.00
2018-03-04T09:01:00.969Z,4568.00
2018-03-04T09:02:00.935Z,4324.00
2018-03-04T09:03:00.898Z,4460.00
2018-03-04T09:04:00.909Z,4364.00
2018-03-04T09:05:00.820Z,4392.00
2018-03-04T09:06:00.792Z,4244.00
2018-03-04T09:07:00.747Z,4176.00
2018-03-04T09:08:00.711Z,4280.00
2018-03-04T09:09:00.724Z,4360.00
2018-03-04T09:10:00.634Z,4244.00
2018-03-04T09:11:00.599Z,4132.00
2018-03-04T09:12:00.565Z,4044.00
2018-03-04T09:13:00.525Z,3952.00
2018-03-04T09:14:00.550Z,4296.00
2018-03-04T09:15:00.448Z,6640.00
2018-03-04T09:16:00.415Z,6816.00
2018-03-04T09:17:00.384Z,4612.00
2018-03-04T09:18:00.340Z,5352.00
2018-03-04T09:19:00.301Z,4172.00
2018-03-04T09:20:00.266Z,5068.00
2018-03-04T09:21:00.228Z,6744.00
2018-03-04T09:22:00.191Z,4196.00
2018-03-04T09:23:00.159Z,4512.00
2018-03-04T09:24:00.119Z,5156.00
2018-03-04T09:25:00.085Z,8720.00
2018-03-04T09:26:00.049Z,11480.00
2018-03-04T09:27:00.013Z,9740.00
2018-03-04T09:27:59.979Z,10044.00
2018-03-04T09:28:59.947Z,9788.00
2018-03-04T09:29:59.912Z,12076.00
2018-03-04T09:30:59.876Z,12320.00
2018-03-04T09:31:59.845Z,12284.00
2018-03-04T09:32:59.816Z,4960.00
2018-03-04T09:33:59.779Z,4792.00
2018-03-04T09:34:59.749Z,4600.00
2018-03-04T09:35:59.717Z,4272.00
2018-03-04T09:36:59.685Z,4220.00
2018-03-04T09:37:59.653Z,4944.00
2018-03-04T09:38:59.617Z,5820.00
2018-03-04T09:39:59.585Z,4808.00
2018-03-04T09:40:59.554Z,3632.00
2018-03-04T09:41:59.518Z,3492.00
2018-03-04T09:42:59.484Z,3528.00
2018-03-04T09:43:59.455Z,3612.00
2018-03-04T09:44:59.445Z,3848.00
2018-03-04T09:45:59.382Z,7680.00
2018-03-04T09:46:59.347Z,4532.00
2018-03-04T09:47:59.314Z,4676.00
2018-03-04T09:48:59.274Z,5756.00
2018-03-04T09:49:59.242Z,4988.00
2018-03-04T09:50:59.205Z,5056.00
2018-03-04T09:51:59.174Z,4972.00
2018-03-04T09:52:59.138Z,5296.00
2018-03-04T09:53:59.102Z,9012.00
2018-03-04T09:54:59.067Z,10356.00
2018-03-04T09:55:59.035Z,4544.00
2018-03-04T09:56:58.999Z,4016.00
2018-03-04T09:57:58.964Z,3808.00
2018-03-04T09:58:58.934Z,3768.00
2018-03-04T09:59:58.918Z,4156.00
2018-03-04T10:00:58.862Z,6492.00
2018-03-04T10:01:59.136Z,8020.00
2018-03-04T10:02:58.792Z,9728.00
2018-03-04T10:03:58.760Z,9588.00
2018-03-04T10:04:58.734Z,9496.00
2018-03-04T10:05:58.717Z,7996.00
2018-03-04T10:06:58.660Z,9700.00
2018-03-04T10:07:58.626Z,9616.00
2018-03-04T10:08:58.597Z,8760.00
2018-03-04T10:09:58.569Z,7916.00
2018-03-04T10:10:58.537Z,9968.00
2018-03-04T10:11:58.504Z,10944.00
2018-03-04T10:12:58.476Z,10784.00
2018-03-04T10:13:58.447Z,10500.00
2018-03-04T10:14:58.458Z,10724.00
2018-03-04T10:15:58.388Z,10564.00
2018-03-04T10:16:58.372Z,9904.00
2018-03-04T10:17:58.334Z,11040.00
2018-03-04T10:18:58.300Z,10816.00
2018-03-04T10:19:58.274Z,8956.00
2018-03-04T10:20:58.249Z,9436.00
2018-03-04T10:21:58.220Z,4608.00
2018-03-04T10:22:58.188Z,4464.00
2018-03-04T10:23:58.199Z,4560.00
2018-03-04T10:24:58.129Z,4732.00
2018-03-04T10:25:58.100Z,5224.00
2018-03-04T10:26:58.067Z,5832.00
2018-03-04T10:27:58.039Z,10900.00
2018-03-04T10:28:58.008Z,8088.00
2018-03-04T10:29:57.973Z,6464.00
2018-03-04T10:30:57.944Z,5692.00
2018-03-04T10:31:57.915Z,6056.00
2018-03-04T10:32:57.884Z,6176.00
2018-03-04T10:33:57.854Z,13588.00
2018-03-04T10:34:57.816Z,13640.00
2018-03-04T10:35:57.784Z,13408.00
2018-03-04T10:36:57.754Z,13244.00
2018-03-04T10:37:57.723Z,12532.00
2018-03-04T10:38:57.690Z,12028.00
2018-03-04T10:39:57.662Z,4500.00
2018-03-04T10:40:57.632Z,4600.00
2018-03-04T10:41:57.604Z,4524.00
2018-03-04T10:42:57.573Z,4244.00
2018-03-04T10:43:57.541Z,4260.00
2018-03-04T10:44:57.511Z,4516.00
2018-03-04T10:45:57.485Z,4176.00
2018-03-04T10:46:57.452Z,4288.00
2018-03-04T10:47:57.420Z,4624.00
2018-03-04T10:48:57.387Z,9704.00
2018-03-04T10:49:57.372Z,11776.00
2018-03-04T10:50:57.322Z,12716.00
2018-03-04T10:51:57.288Z,12916.00
2018-03-04T10:52:57.258Z,12928.00
2018-03-04T10:53:57.230Z,12660.00
2018-03-04T10:54:57.194Z,10864.00
2018-03-04T10:55:57.169Z,4624.00
2018-03-04T10:56:57.139Z,6012.00
2018-03-04T10:57:57.107Z,12948.00
2018-03-04T10:58:57.078Z,13032.00
2018-03-04T10:59:57.046Z,13288.00
2018-03-04T11:00:57.016Z,13644.00
2018-03-04T11:01:56.988Z,14560.00
2018-03-04T11:02:56.961Z,11720.00
2018-03-04T11:03:56.950Z,10524.00
2018-03-04T11:04:56.909Z,13792.00
2018-03-04T11:05:56.880Z,14048.00
2018-03-04T11:06:56.851Z,13760.00
2018-03-04T11:07:56.829Z,15616.00
2018-03-04T11:08:56.802Z,13984.00
2018-03-04T11:09:56.770Z,13344.00
2018-03-04T11:10:56.746Z,14368.00
2018-03-04T11:11:56.721Z,13632.00
2018-03-04T11:12:56.696Z,14336.00
2018-03-04T11:13:56.671Z,15264.00
2018-03-04T11:14:56.646Z,15392.00
2018-03-04T11:15:56.620Z,15744.00
2018-03-04T11:16:56.597Z,15552.00
2018-03-04T11:17:56.571Z,8872.00
2018-03-04T11:18:56.550Z,12404.00
2018-03-04T11:19:56.525Z,14720.00
2018-03-04T11:20:56.499Z,14976.00
2018-03-04T11:21:56.472Z,18016.00
2018-03-04T11:22:56.455Z,17664.00
2018-03-04T11:23:56.425Z,18336.00
2018-03-04T11:24:56.402Z,17632.00
2018-03-04T11:25:56.375Z,16128.00
2018-03-04T11:26:56.350Z,12500.00
2018-03-04T11:27:56.329Z,18432.00
2018-03-04T11:28:56.305Z,17888.00
2018-03-04T11:29:56.281Z,17824.00
2018-03-04T11:30:56.325Z,17376.00
2018-03-04T11:31:56.232Z,19584.00
2018-03-04T11:32:56.206Z,19456.00
2018-03-04T11:33:56.194Z,19136.00
2018-03-04T11:34:56.157Z,18912.00
2018-03-04T11:35:56.132Z,21056.00
2018-03-04T11:36:56.112Z,21280.00
2018-03-04T11:37:56.085Z,19936.00
2018-03-04T11:38:56.061Z,21216.00
2018-03-04T11:39:56.041Z,21216.00
2018-03-04T11:40:56.015Z,20448.00
2018-03-04T11:41:55.990Z,21504.00
2018-03-04T11:42:55.967Z,23008.00
2018-03-04T11:43:55.945Z,25664.00
2018-03-04T11:44:55.925Z,22304.00
2018-03-04T11:45:55.897Z,23584.00
2018-03-04T11:46:55.875Z,25088.00
2018-03-04T11:47:55.855Z,23488.00
2018-03-04T11:48:55.829Z,24160.00
2018-03-04T11:49:55.803Z,25504.00
2018-03-04T11:50:55.782Z,25984.00
2018-03-04T11:51:55.755Z,23904.00
2018-03-04T11:52:55.733Z,26912.00
2018-03-04T11:53:55.711Z,26400.00
2018-03-04T11:54:55.688Z,26496.00
2018-03-04T11:55:55.715Z,26336.00
2018-03-04T11:56:55.641Z,28032.00
2018-03-04T11:57:55.616Z,27744.00
2018-03-04T11:58:55.594Z,28128.00
2018-03-04T11:59:55.570Z,29376.00
2018-03-04T12:00:55.550Z,28480.00
2018-03-04T12:01:55.523Z,27456.00
2018-03-04T12:02:55.507Z,28128.00
2018-03-04T12:03:55.482Z,29760.00
2018-03-04T12:04:55.455Z,31168.00
2018-03-04T12:05:55.474Z,30880.00
2018-03-04T12:06:55.407Z,30208.00
2018-03-04T12:07:55.386Z,32800.00
2018-03-04T12:08:55.367Z,32832.00
2018-03-04T12:09:55.338Z,32448.00
2018-03-04T12:10:55.313Z,32448.00
2018-03-04T12:11:55.290Z,32480.00
2018-03-04T12:12:55.267Z,32480.00
2018-03-04T12:13:55.246Z,35008.00
2018-03-04T12:14:55.220Z,31808.00
2018-03-04T12:15:55.197Z,35520.00
2018-03-04T12:16:55.175Z,32576.00
2018-03-04T12:17:55.154Z,35808.00
2018-03-04T12:18:55.129Z,30592.00
2018-03-04T12:19:55.107Z,35808.00
2018-03-04T12:20:55.087Z,34656.00
2018-03-04T12:21:55.058Z,35296.00
2018-03-04T12:22:55.037Z,34176.00
2018-03-04T12:23:55.020Z,35072.00
2018-03-04T12:24:54.993Z,38048.00
2018-03-04T12:25:54.969Z,35936.00
2018-03-04T12:26:54.947Z,36448.00
2018-03-04T12:27:54.923Z,38016.00
2018-03-04T12:28:54.900Z,36192.00
2018-03-04T12:29:54.913Z,36384.00
2018-03-04T12:30:54.854Z,35680.00
2018-03-04T12:31:54.832Z,34464.00
2018-03-04T12:32:54.808Z,33696.00
2018-03-04T12:33:54.784Z,32480.00
2018-03-04T12:34:54.765Z,31648.00
2018-03-04T12:35:54.738Z,35616.00
2018-03-04T12:36:54.715Z,36448.00